KLIT

Bill and Hillary Clinton National / Adams Field Airport

Little Rock, Arkansas, USA
KLIT 181129Z 1812/1912 04006KT P6SM SCT120 BKN200 FM181500 05009KT P6SM FEW120 SCT200 FM190000 06005KT P6SM SCT060 BKN100 FM190900 04003KT P6SM VCSH OVC060
Issued Valid From Valid To
Oct-18 @ 11:29 UTC
(19 minutes ago)
Oct-18 @ 12:00 UTC
(in 12 minutes)
Oct-19 @ 12:00 UTC
(in 24 hours)
Oct-18 @ 12:00 to Oct-18 @ 15:00
KLIT 181129Z 1812/1912 04006KT P6SM SCT120 BKN200
Wind Visibility Clouds
40° at 6 knots Greater than 6 miles
  • Scattered at 12,000' AGL
  • Broken at 20,000' AGL
From Oct-18 @ 15:00 to Oct-19 @ 00:00
FM181500 05009KT P6SM FEW120 SCT200
Wind Visibility Clouds
50° at 9 knots Greater than 6 miles
  • Few at 12,000' AGL
  • Scattered at 20,000' AGL
From Oct-19 @ 00:00 to Oct-19 @ 09:00
FM190000 06005KT P6SM SCT060 BKN100
Wind Visibility Clouds
60° at 5 knots Greater than 6 miles
  • Scattered at 6,000' AGL
  • Broken at 10,000' AGL
From Oct-19 @ 09:00 to Oct-19 @ 12:00
FM190900 04003KT P6SM VCSH OVC060
Wind Visibility Clouds
40° at 3 knots Greater than 6 miles
  • Overcast at 6,000' AGL
KLIT 181129Z 1812/1912 04006KT P6SM SCT120 BKN200 FM181500 05009KT P6SM FEW120 SCT200 FM190000 06005KT P6SM SCT060 BKN100 FM190900 04003KT P6SM VCSH OVC060
Issued Oct-18 @ 11:29 UTC
(19 minutes ago)
Valid From Oct-18 @ 12:00 UTC
(in 12 minutes)
Valid To Oct-19 @ 12:00 UTC
(in 24 hours)
Oct-18 @ 12:00 - Oct-18 @ 15:00
Wind Visibility
40° at 6 knots Greater than 6 miles
Clouds
  • Scattered at 12,000' AGL
  • Broken at 20,000' AGL
From Oct-18 @ 15:00 - Oct-19 @ 00:00
Wind Visibility
50° at 9 knots Greater than 6 miles
Clouds
  • Few at 12,000' AGL
  • Scattered at 20,000' AGL
From Oct-19 @ 00:00 - Oct-19 @ 09:00
Wind Visibility
60° at 5 knots Greater than 6 miles
Clouds
  • Scattered at 6,000' AGL
  • Broken at 10,000' AGL
From Oct-19 @ 09:00 - Oct-19 @ 12:00
Wind Visibility
40° at 3 knots Greater than 6 miles
Clouds
  • Overcast at 6,000' AGL